Wetterdaten: Woche 21.01.19 - 27.01.19 (KW4)
Datum Zeit Temp. A. Feuchte A. Luftdruck Regen Wind Richtung Taupunkt Windchill Windben
21.01.2019 00:00 -3,0 C 79 % 1020,8 hPa 0,0 l/m 0,0 km/h N -6,1 C -3,0 C 0,0 km/h
21.01.2019 01:00 -3,4 C 80 % 1020,8 hPa 0,0 l/m 0,3 km/h N -6,3 C -3,4 C 3,6 km/h
21.01.2019 02:00 -4,0 C 80 % 1021,3 hPa 0,0 l/m 0,0 km/h N -6,9 C -4,0 C 0,0 km/h
21.01.2019 03:00 -5,2 C 81 % 1021,5 hPa 0,0 l/m 0,0 km/h N -8,0 C -5,2 C 0,0 km/h
21.01.2019 04:00 -6,2 C 82 % 1021,5 hPa 0,0 l/m 0,0 km/h N -8,9 C -6,2 C 0,0 km/h
21.01.2019 05:00 -6,7 C 82 % 1021,6 hPa 0,0 l/m 0,0 km/h N -9,2 C -6,7 C 0,0 km/h
21.01.2019 06:00 -6,8 C 83 % 1022,0 hPa 0,0 l/m 0,0 km/h N -9,2 C -6,8 C 0,0 km/h
21.01.2019 07:00 -6,7 C 83 % 1022,4 hPa 0,0 l/m 0,0 km/h N -9,1 C -6,7 C 0,0 km/h
21.01.2019 08:00 -6,6 C 83 % 1022,8 hPa 0,0 l/m 0,0 km/h N -8,9 C -6,6 C 1,2 km/h
21.01.2019 09:00 -4,9 C 83 % 1022,9 hPa 0,0 l/m 0,0 km/h N -7,3 C -4,9 C 0,8 km/h
21.01.2019 10:00 -3,0 C 83 % 1023,0 hPa 0,0 l/m 2,2 km/h N -5,5 C -3,0 C 6,4 km/h
21.01.2019 11:00 -1,5 C 76 % 1022,4 hPa 0,3 l/m 2,8 km/h N -5,2 C -1,5 C 7,6 km/h
21.01.2019 12:00 -0,5 C 69 % 1021,8 hPa 0,0 l/m 2,4 km/h N -5,6 C -0,5 C 7,2 km/h
21.01.2019 13:00 0,4 C 66 % 1021,3 hPa 0,0 l/m 1,1 km/h N -5,2 C 0,4 C 7,6 km/h
21.01.2019 14:00 1,0 C 67 % 1021,0 hPa 0,0 l/m 0,1 km/h N -4,5 C 1,0 C 4,0 km/h
21.01.2019 15:00 1,1 C 66 % 1020,8 hPa 0,0 l/m 0,0 km/h N -4,5 C 1,1 C 0,4 km/h
21.01.2019 16:00 -0,3 C 67 % 1020,8 hPa 0,0 l/m 0,0 km/h N -5,6 C -0,3 C 0,0 km/h
21.01.2019 17:00 -2,4 C 69 % 1020,8 hPa 0,0 l/m 0,0 km/h N -7,3 C -2,4 C 0,0 km/h
21.01.2019 18:00 -3,9 C 74 % 1020,9 hPa 0,0 l/m 0,0 km/h N -7,8 C -3,9 C 0,0 km/h
21.01.2019 19:00 -5,1 C 78 % 1020,8 hPa 0,0 l/m 0,0 km/h N -8,3 C -5,1 C 0,0 km/h
21.01.2019 20:00 -5,7 C 81 % 1020,7 hPa 0,0 l/m 0,0 km/h N -8,6 C -5,7 C 0,0 km/h
21.01.2019 21:00 -6,1 C 82 % 1020,6 hPa 0,0 l/m 0,0 km/h N -8,6 C -6,1 C 0,0 km/h
21.01.2019 22:00 -6,2 C 83 % 1020,2 hPa 0,0 l/m 0,0 km/h N -8,6 C -6,2 C 0,4 km/h
21.01.2019 23:00 -6,7 C 83 % 1020,1 hPa 0,0 l/m 0,0 km/h N -9,1 C -6,7 C 0,0 km/h
22.01.2019 00:00 -7,2 C 83 % 1019,9 hPa 0,0 l/m 0,0 km/h N -9,6 C -7,2 C 0,0 km/h
22.01.2019 01:00 -7,3 C 83 % 1019,4 hPa 0,0 l/m 0,0 km/h N -9,7 C -7,3 C 0,0 km/h
22.01.2019 02:00 -7,6 C 83 % 1019,1 hPa 0,0 l/m 0,0 km/h N -9,9 C -7,6 C 0,0 km/h
22.01.2019 03:00 -7,6 C 84 % 1018,6 hPa 0,0 l/m 0,0 km/h N -9,9 C -7,6 C 0,0 km/h
22.01.2019 04:00 -7,9 C 84 % 1018,1 hPa 0,0 l/m 0,0 km/h N -10,2 C -7,9 C 0,0 km/h
22.01.2019 05:00 -8,3 C 84 % 1017,6 hPa 0,0 l/m 0,0 km/h N -10,5 C -8,3 C 0,0 km/h
22.01.2019 06:00 -8,7 C 84 % 1017,5 hPa 0,0 l/m 0,0 km/h N -10,9 C -8,7 C 0,0 km/h
22.01.2019 07:00 -9,2 C 86 % 1017,3 hPa 0,0 l/m 0,0 km/h N -11,1 C -9,2 C 0,0 km/h
22.01.2019 08:00 -9,4 C 84 % 1017,4 hPa 0,0 l/m 0,0 km/h N -11,6 C -9,4 C 0,0 km/h
22.01.2019 09:00 -8,2 C 83 % 1017,2 hPa 0,0 l/m 0,0 km/h N -10,5 C -8,2 C 1,6 km/h
22.01.2019 10:00 -6,2 C 83 % 1016,7 hPa 0,0 l/m 0,0 km/h N -8,6 C -6,2 C 0,4 km/h
22.01.2019 11:00 -5,5 C 83 % 1015,9 hPa 0,0 l/m 0,2 km/h N -7,9 C -5,5 C 3,2 km/h
22.01.2019 12:00 -5,6 C 83 % 1015,2 hPa 0,0 l/m 0,0 km/h N -8,0 C -5,6 C 0,0 km/h
22.01.2019 13:00 -5,2 C 83 % 1014,2 hPa 0,0 l/m 0,1 km/h N -7,6 C -5,2 C 2,0 km/h
22.01.2019 14:00 -4,9 C 83 % 1013,5 hPa 0,0 l/m 0,1 km/h N -7,4 C -4,9 C 2,4 km/h
22.01.2019 15:00 -5,0 C 83 % 1012,7 hPa 0,0 l/m 0,1 km/h N -7,4 C -5,0 C 2,4 km/h
22.01.2019 16:00 -4,9 C 83 % 1012,1 hPa 0,0 l/m 0,0 km/h N -7,3 C -4,9 C 0,0 km/h
22.01.2019 17:00 -4,6 C 83 % 1011,6 hPa 0,0 l/m 0,0 km/h N -7,1 C -4,6 C 0,0 km/h
22.01.2019 18:00 -4,4 C 83 % 1011,1 hPa 0,0 l/m 0,0 km/h N -6,9 C -4,4 C 0,0 km/h
22.01.2019 19:00 -4,3 C 83 % 1010,6 hPa 0,0 l/m 0,0 km/h N -6,8 C -4,3 C 0,8 km/h
22.01.2019 20:00 -4,4 C 83 % 1010,0 hPa 0,0 l/m 0,2 km/h N -6,8 C -4,4 C 4,0 km/h
22.01.2019 21:00 -4,6 C 83 % 1009,2 hPa 0,0 l/m 0,0 km/h N -7,1 C -4,6 C 1,6 km/h
22.01.2019 22:00 -4,8 C 83 % 1008,6 hPa 0,0 l/m 0,1 km/h N -7,3 C -4,8 C 2,0 km/h
22.01.2019 23:00 -5,0 C 83 % 1008,1 hPa 0,0 l/m 0,0 km/h N -7,5 C -5,0 C 2,0 km/h
23.01.2019 00:00 -5,3 C 83 % 1007,3 hPa 0,0 l/m 0,0 km/h N -7,7 C -5,3 C 1,6 km/h
23.01.2019 01:00 -5,7 C 83 % 1006,6 hPa 0,0 l/m 0,0 km/h N -8,1 C -5,7 C 0,0 km/h
23.01.2019 02:00 -5,9 C 83 % 1006,0 hPa 0,0 l/m 0,0 km/h N -8,3 C -5,9 C 0,0 km/h
23.01.2019 03:00 -5,7 C 83 % 1005,1 hPa 0,0 l/m 0,0 km/h N -8,1 C -5,7 C 0,0 km/h
23.01.2019 04:00 -5,4 C 83 % 1004,5 hPa 0,0 l/m 0,0 km/h N -7,8 C -5,4 C 0,0 km/h
23.01.2019 05:00 -5,2 C 83 % 1004,1 hPa 0,0 l/m 0,0 km/h N -7,6 C -5,2 C 0,0 km/h
23.01.2019 06:00 -5,0 C 83 % 1003,8 hPa 0,0 l/m 0,0 km/h N -7,5 C -5,0 C 0,8 km/h
23.01.2019 07:00 -5,3 C 83 % 1003,6 hPa 0,0 l/m 0,0 km/h N -7,8 C -5,3 C 0,0 km/h
23.01.2019 08:00 -5,6 C 83 % 1003,7 hPa 0,0 l/m 0,0 km/h N -8,0 C -5,6 C 0,0 km/h
23.01.2019 09:00 -5,4 C 83 % 1003,6 hPa 0,0 l/m 0,0 km/h N -7,8 C -5,4 C 0,0 km/h
23.01.2019 10:00 -5,0 C 83 % 1003,3 hPa 0,0 l/m 0,0 km/h N -7,4 C -5,0 C 0,4 km/h
23.01.2019 11:00 -4,6 C 83 % 1002,6 hPa 0,0 l/m 0,1 km/h N -6,9 C -4,6 C 2,4 km/h
23.01.2019 12:00 -3,3 C 84 % 1002,0 hPa 0,0 l/m 0,0 km/h N -5,7 C -3,3 C 2,4 km/h
23.01.2019 13:00 -3,0 C 83 % 1001,5 hPa 0,0 l/m 0,3 km/h N -5,6 C -3,0 C 4,0 km/h
23.01.2019 14:00 -3,2 C 82 % 1001,1 hPa 0,0 l/m 0,0 km/h N -5,8 C -3,2 C 2,4 km/h
23.01.2019 15:00 -3,7 C 82 % 1001,1 hPa 0,0 l/m 0,0 km/h N -6,3 C -3,7 C 1,6 km/h
23.01.2019 16:00 -4,0 C 83 % 1001,5 hPa 0,0 l/m 0,0 km/h N -6,5 C -4,0 C 1,2 km/h
23.01.2019 17:00 -4,2 C 83 % 1001,8 hPa 0,0 l/m 0,0 km/h N -6,6 C -4,2 C 0,0 km/h
23.01.2019 18:00 -4,1 C 83 % 1002,0 hPa 0,0 l/m 0,0 km/h N -6,5 C -4,1 C 0,4 km/h
23.01.2019 19:00 -3,8 C 83 % 1002,3 hPa 0,0 l/m 0,0 km/h N -6,2 C -3,8 C 0,0 km/h
23.01.2019 20:00 -3,6 C 83 % 1002,6 hPa 0,0 l/m 0,0 km/h N -6,1 C -3,6 C 0,4 km/h
23.01.2019 21:00 -3,6 C 83 % 1002,7 hPa 0,0 l/m 0,0 km/h N -6,0 C -3,6 C 0,4 km/h
23.01.2019 22:00 -3,4 C 83 % 1002,9 hPa 0,0 l/m 0,0 km/h N -5,9 C -3,4 C 0,4 km/h
23.01.2019 23:00 -3,3 C 83 % 1003,2 hPa 0,0 l/m 0,0 km/h N -5,8 C -3,3 C 0,0 km/h
24.01.2019 00:00 -3,2 C 83 % 1003,4 hPa 0,0 l/m 0,0 km/h N -5,7 C -3,2 C 0,0 km/h
24.01.2019 01:00 -3,2 C 83 % 1003,7 hPa 0,0 l/m 0,0 km/h N -5,6 C -3,2 C 0,0 km/h
24.01.2019 02:00 -3,0 C 83 % 1004,1 hPa 0,0 l/m 0,0 km/h N -5,5 C -3,0 C 0,0 km/h
24.01.2019 03:00 -2,8 C 82 % 1004,3 hPa 0,0 l/m 0,2 km/h N -5,5 C -2,8 C 3,2 km/h
24.01.2019 04:00 -3,1 C 82 % 1004,7 hPa 0,0 l/m 0,9 km/h N -5,7 C -3,1 C 6,0 km/h
24.01.2019 05:00 -3,0 C 82 % 1004,9 hPa 0,0 l/m 1,0 km/h N -5,6 C -3,0 C 5,2 km/h
24.01.2019 06:00 -2,9 C 83 % 1005,7 hPa 0,0 l/m 2,1 km/h N -5,4 C -2,9 C 7,2 km/h
24.01.2019 07:00 -3,0 C 83 % 1006,3 hPa 0,0 l/m 3,6 km/h N -5,5 C -3,0 C 8,9 km/h
24.01.2019 08:00 -3,1 C 83 % 1007,2 hPa 0,0 l/m 3,8 km/h N -5,6 C -3,1 C 10,9 km/h
24.01.2019 09:00 -3,1 C 83 % 1007,5 hPa 0,0 l/m 5,8 km/h N -5,6 C -3,1 C 13,7 km/h
24.01.2019 10:00 -3,1 C 83 % 1007,9 hPa 0,0 l/m 6,6 km/h N -5,6 C -3,6 C 17,3 km/h
24.01.2019 11:00 -3,1 C 83 % 1008,0 hPa 0,0 l/m 7,6 km/h N -5,5 C -4,5 C 20,5 km/h
24.01.2019 12:00 -2,7 C 82 % 1007,9 hPa 0,0 l/m 7,1 km/h N -5,3 C -3,5 C 19,3 km/h
24.01.2019 13:00 -2,3 C 82 % 1007,7 hPa 0,0 l/m 7,8 km/h N -5,0 C -3,8 C 19,3 km/h
24.01.2019 14:00 -2,3 C 83 % 1007,7 hPa 0,0 l/m 7,5 km/h N -4,8 C -3,6 C 19,7 km/h
24.01.2019 15:00 -2,1 C 83 % 1007,9 hPa 0,0 l/m 5,4 km/h N -4,6 C -2,3 C 15,7 km/h
24.01.2019 16:00 -1,9 C 83 % 1008,2 hPa 0,0 l/m 6,0 km/h N -4,4 C -2,3 C 18,5 km/h
24.01.2019 17:00 -2,2 C 83 % 1008,7 hPa 0,0 l/m 5,3 km/h N -4,8 C -2,2 C 16,1 km/h
24.01.2019 18:00 -2,2 C 81 % 1008,9 hPa 0,0 l/m 5,6 km/h N -5,0 C -2,2 C 13,7 km/h
24.01.2019 19:00 -2,2 C 81 % 1009,3 hPa 0,0 l/m 4,7 km/h N -5,0 C -2,2 C 15,3 km/h
24.01.2019 20:00 -2,3 C 81 % 1009,5 hPa 0,0 l/m 5,0 km/h N -5,2 C -2,3 C 13,3 km/h
24.01.2019 21:00 -2,5 C 81 % 1009,8 hPa 0,0 l/m 5,6 km/h N -5,3 C -2,5 C 16,1 km/h
24.01.2019 22:00 -2,5 C 81 % 1010,0 hPa 0,0 l/m 5,4 km/h N -5,3 C -2,5 C 15,7 km/h
24.01.2019 23:00 -2,5 C 81 % 1010,4 hPa 0,0 l/m 5,1 km/h N -5,3 C -2,5 C 13,3 km/h
25.01.2019 00:00 -2,3 C 81 % 1010,5 hPa 0,0 l/m 5,0 km/h N -5,2 C -2,3 C 11,7 km/h
25.01.2019 01:00 -2,1 C 81 % 1010,6 hPa 0,0 l/m 4,2 km/h N -5,0 C -2,1 C 10,9 km/h
25.01.2019 02:00 -1,6 C 82 % 1010,8 hPa 0,0 l/m 5,8 km/h N -4,3 C -2,0 C 19,3 km/h
25.01.2019 03:00 -1,5 C 80 % 1010,8 hPa 0,0 l/m 5,3 km/h N -4,5 C -1,7 C 18,1 km/h
25.01.2019 04:00 -1,6 C 78 % 1010,6 hPa 0,0 l/m 5,7 km/h N -4,9 C -2,1 C 18,9 km/h
25.01.2019 05:00 -1,7 C 75 % 1010,9 hPa 0,0 l/m 6,9 km/h N -5,6 C -2,3 C 25,8 km/h
25.01.2019 06:00 -2,0 C 75 % 1011,5 hPa 0,0 l/m 6,2 km/h N -5,8 C -2,5 C 19,3 km/h
25.01.2019 07:00 -1,8 C 72 % 1011,8 hPa 0,0 l/m 10,9 km/h N -6,3 C -6,1 C 25,3 km/h
25.01.2019 08:00 -1,8 C 72 % 1012,3 hPa 0,0 l/m 11,3 km/h N -6,1 C -6,4 C 29,0 km/h
25.01.2019 09:00 -1,6 C 73 % 1013,0 hPa 0,0 l/m 9,4 km/h N -5,7 C -4,6 C 28,1 km/h
25.01.2019 10:00 -1,1 C 72 % 1013,3 hPa 0,0 l/m 10,8 km/h N -5,5 C -5,3 C 29,4 km/h
25.01.2019 11:00 -0,6 C 69 % 1013,1 hPa 0,0 l/m 12,4 km/h N -5,7 C -5,9 C 30,2 km/h
25.01.2019 12:00 -0,4 C 68 % 1013,5 hPa 0,0 l/m 10,8 km/h N -5,5 C -4,5 C 28,2 km/h
25.01.2019 13:00 -0,3 C 67 % 1013,3 hPa 0,0 l/m 10,0 km/h N -5,7 C -3,7 C 24,5 km/h
25.01.2019 14:00 -0,4 C 66 % 1013,8 hPa 0,0 l/m 11,3 km/h N -6,1 C -4,9 C 26,6 km/h
25.01.2019 15:00 -0,7 C 65 % 1014,1 hPa 0,0 l/m 9,8 km/h N -6,4 C -3,9 C 25,3 km/h
25.01.2019 16:00 -1,0 C 65 % 1014,2 hPa 0,0 l/m 9,9 km/h N -6,7 C -4,4 C 26,5 km/h
25.01.2019 17:00 -1,3 C 64 % 1014,7 hPa 0,0 l/m 9,9 km/h N -7,1 C -4,7 C 28,6 km/h
25.01.2019 18:00 -1,6 C 64 % 1015,5 hPa 0,0 l/m 7,9 km/h N -7,5 C -3,2 C 24,1 km/h
25.01.2019 19:00 -1,8 C 66 % 1015,8 hPa 0,0 l/m 7,4 km/h N -7,2 C -2,7 C 22,5 km/h
25.01.2019 20:00 -2,0 C 68 % 1015,8 hPa 0,0 l/m 7,3 km/h N -7,1 C -3,0 C 22,1 km/h
25.01.2019 21:00 -2,2 C 72 % 1015,8 hPa 0,0 l/m 7,3 km/h N -6,6 C -3,5 C 29,0 km/h
25.01.2019 22:00 -2,2 C 69 % 1015,4 hPa 0,0 l/m 9,6 km/h N -7,0 C -5,2 C 28,6 km/h
25.01.2019 23:00 -2,4 C 69 % 1015,0 hPa 0,0 l/m 10,5 km/h N -7,4 C -6,1 C 30,6 km/h
26.01.2019 00:00 -2,3 C 71 % 1014,3 hPa 0,0 l/m 10,4 km/h N -6,9 C -6,4 C 30,6 km/h
26.01.2019 01:00 -2,2 C 72 % 1013,8 hPa 0,0 l/m 7,9 km/h N -6,5 C -3,9 C 28,5 km/h
26.01.2019 02:00 -2,0 C 69 % 1013,4 hPa 0,0 l/m 4,4 km/h N -6,9 C -2,0 C 17,3 km/h
26.01.2019 03:00 -1,1 C 64 % 1012,6 hPa 0,0 l/m 8,7 km/h N -7,2 C -4,2 C 27,0 km/h
26.01.2019 04:00 -0,7 C 62 % 1012,3 hPa 0,0 l/m 5,8 km/h N -7,0 C -0,8 C 22,9 km/h
26.01.2019 05:00 -0,3 C 62 % 1011,6 hPa 0,0 l/m 8,1 km/h N -6,6 C -3,6 C 25,7 km/h
26.01.2019 06:00 -1,4 C 66 % 1010,8 hPa 0,0 l/m 0,2 km/h N -6,9 C -1,4 C 4,8 km/h
26.01.2019 07:00 0,6 C 67 % 1009,6 hPa 0,0 l/m 9,2 km/h N -4,9 C -2,7 C 33,0 km/h
26.01.2019 08:00 1,8 C 62 % 1009,4 hPa 0,0 l/m 10,6 km/h N -4,6 C -1,8 C 33,8 km/h
26.01.2019 09:00 2,0 C 68 % 1009,2 hPa 0,0 l/m 11,4 km/h N -3,2 C -2,2 C 36,2 km/h
26.01.2019 10:00 1,7 C 79 % 1008,9 hPa 0,0 l/m 12,3 km/h N -1,5 C -3,1 C 42,3 km/h
26.01.2019 11:00 2,3 C 81 % 1008,4 hPa 0,3 l/m 8,4 km/h N -0,6 C 0,4 C 35,4 km/h
26.01.2019 12:00 3,2 C 79 % 1007,8 hPa 0,0 l/m 9,9 km/h N -0,0 C 0,2 C 35,8 km/h
26.01.2019 13:00 3,7 C 79 % 1007,0 hPa 0,3 l/m 9,5 km/h N 0,3 C 1,0 C 34,6 km/h
26.01.2019 14:00 3,4 C 81 % 1006,6 hPa 1,3 l/m 6,0 km/h N 0,5 C 3,2 C 24,5 km/h
26.01.2019 15:00 3,7 C 82 % 1006,0 hPa 1,3 l/m 4,6 km/h N 0,9 C 3,7 C 20,9 km/h
26.01.2019 16:00 4,2 C 82 % 1005,6 hPa 2,9 l/m 8,4 km/h N 1,4 C 2,5 C 31,0 km/h
26.01.2019 17:00 4,7 C 82 % 1005,7 hPa 2,1 l/m 11,6 km/h N 1,9 C 0,7 C 36,6 km/h
26.01.2019 18:00 5,0 C 82 % 1005,8 hPa 0,8 l/m 9,4 km/h N 2,2 C 2,6 C 31,8 km/h
26.01.2019 19:00 4,9 C 82 % 1005,8 hPa 1,3 l/m 9,5 km/h N 2,1 C 2,3 C 28,2 km/h
26.01.2019 20:00 5,1 C 82 % 1005,8 hPa 1,3 l/m 6,3 km/h N 2,2 C 4,8 C 26,1 km/h
26.01.2019 21:00 5,1 C 82 % 1005,6 hPa 1,0 l/m 5,3 km/h N 2,3 C 4,6 C 18,9 km/h
26.01.2019 22:00 5,6 C 81 % 1005,6 hPa 0,0 l/m 7,4 km/h N 2,6 C 4,5 C 27,4 km/h
26.01.2019 23:00 6,1 C 79 % 1005,4 hPa 0,0 l/m 7,0 km/h N 2,7 C 5,5 C 23,7 km/h
27.01.2019 00:00 6,1 C 78 % 1005,2 hPa 0,0 l/m 2,5 km/h N 2,6 C 6,1 C 15,3 km/h
27.01.2019 01:00 5,3 C 79 % 1004,8 hPa 0,0 l/m 0,0 km/h N 1,9 C 5,3 C 0,8 km/h
27.01.2019 02:00 3,0 C 80 % 1004,4 hPa 0,0 l/m 0,0 km/h N -0,2 C 3,0 C 0,0 km/h
27.01.2019 03:00 1,1 C 82 % 1003,8 hPa 0,0 l/m 0,0 km/h N -1,7 C 1,1 C 0,0 km/h
27.01.2019 04:00 0,2 C 82 % 1003,3 hPa 0,0 l/m 0,0 km/h N -2,5 C 0,2 C 0,0 km/h
27.01.2019 05:00 -0,4 C 83 % 1002,6 hPa 0,0 l/m 0,0 km/h N -2,9 C -0,4 C 0,0 km/h
27.01.2019 06:00 -0,8 C 83 % 1001,7 hPa 0,0 l/m 0,0 km/h N -3,3 C -0,8 C 0,0 km/h
27.01.2019 07:00 -1,1 C 83 % 1001,1 hPa 0,0 l/m 0,0 km/h N -3,6 C -1,1 C 0,0 km/h
27.01.2019 08:00 -1,8 C 83 % 1000,7 hPa 0,0 l/m 0,0 km/h N -4,3 C -1,8 C 0,0 km/h
27.01.2019 09:00 -1,9 C 82 % 999,8 hPa 0,0 l/m 0,0 km/h N -4,6 C -1,9 C 0,0 km/h
27.01.2019 10:00 -1,9 C 82 % 999,4 hPa 0,0 l/m 0,0 km/h N -4,6 C -1,9 C 0,0 km/h
27.01.2019 11:00 -1,9 C 82 % 999,1 hPa 0,0 l/m 0,0 km/h N -4,6 C -1,9 C 0,0 km/h
27.01.2019 12:00 -1,9 C 82 % 998,1 hPa 0,0 l/m 0,0 km/h N -4,6 C -1,9 C 0,0 km/h
27.01.2019 13:00 -1,9 C 82 % 997,4 hPa 0,0 l/m 0,0 km/h N -4,6 C -1,9 C 0,0 km/h
27.01.2019 14:00 -1,9 C 82 % 997,1 hPa 0,0 l/m 0,0 km/h N -4,6 C -1,9 C 0,0 km/h
27.01.2019 15:00 -1,9 C 82 % 997,0 hPa 0,0 l/m 0,0 km/h N -4,6 C -1,9 C 0,0 km/h
27.01.2019 16:00 -1,9 C 82 % 996,8 hPa 0,0 l/m 0,0 km/h N -4,6 C -1,9 C 0,0 km/h
27.01.2019 17:00 -1,9 C 82 % 996,7 hPa 0,0 l/m 0,0 km/h N -4,6 C -1,9 C 0,0 km/h
27.01.2019 18:00 -1,9 C 82 % 995,3 hPa 0,0 l/m 0,0 km/h N -4,6 C -1,9 C 0,0 km/h
27.01.2019 19:00 -1,9 C 82 % 994,9 hPa 0,0 l/m 0,0 km/h N -4,6 C -1,9 C 0,0 km/h
27.01.2019 20:00 -1,9 C 82 % 994,9 hPa 0,0 l/m 0,0 km/h N -4,6 C -1,9 C 0,0 km/h
27.01.2019 21:00 -1,9 C 82 % 994,7 hPa 0,0 l/m 0,0 km/h N -4,6 C -1,9 C 0,0 km/h
27.01.2019 22:00 -1,9 C 82 % 994,5 hPa 0,0 l/m 0,0 km/h N -4,6 C -1,9 C 0,0 km/h
27.01.2019 23:00 -1,9 C 82 % 994,3 hPa 0,0 l/m 0,0 km/h N -4,6 C -1,9 C 0,0 km/h
Min-Datum _ 22.01.19 26.01.19 27.01.19 - 21.01.19 - 22.01.19 25.01.19 21.01.19
_ Min-Zeit 08:15 03:45 23:00 - 00:00 - 08:15 23:00 00:00
Minimum _ -9,5 C 61 % 994,2 hPa - 0,0 km/h - -11,7 C -10,5 C 0,0 km/h
Max-Datum _ 26.01.19 22.01.19 21.01.19 26.01.19 25.01.19 - 26.01.19 26.01.19 26.01.19
_ Max-Zeit 23:30 07:00 08:45 16:45 23:00 - 23:15 23:15 10:00
Maximum _ 6,3 C 92 % 1023,0 hPa 2,9 l/m 16,3 km/h
N
- 2,8 C 6,2 C 45,1 km/h
N
Durchschnitt _ -2,5 C 79 % 1009,6 hPa #12,7 l/m 3,0 km/h N -5,6 C -3,1 C 9,8 km/h